Forside
METAR-TAF:

METAR-TAF

Lufthavne :

Faribault Municipal Airport

Faribault, Minnesota, USA

Breddekreds: 44-20N, længdekreds: 093-19W, højde: 322 m

Aktuelle vejr

Denne rapport blev lavet for 21 minutter siden, kl. 00:55 UTC
Vind 7 kt fra nordvest
Temperatur 17°C
Fugtighed 39%
Tryk 1014 hPa
Sigt: 16.1 km
Spredte skyer i en højde af 6500 ft
Brudte skyer i en højde af 8000 ft

METAR: KFBL 220055Z AUTO 32007KT 10SM SCT065 BKN080 17/03 A2995 RMK AO2

Tid: 20:16 (01:16 UTC)


TAF: fraværende

Vejrobservationer og prognoser fra mere end 4000 lufthavne (METAR og TAF).

De gule og røde prikker repræsenterer de meteorologiske stationer.

Flyt musen over at se navnet på stationen.

Så klik over at se vejr observationer og prognoser.

At skifte det kort: Klik på de grønne knapper med et sort kors for at zoome ind; på den grønne knap med en bindestreg for at zoome ud; eller på de grønne pile for tilstødende kort.


METAR-TAF: